Rhonda Lamulle — WDC8441 — position and weather

sailwx.info

Track history (hours):
 
Tides and Currents Weather Stations Pressure Air Temp Water Temp Dewpoint Dewpoint Depression Visibility Wind Speed Wind Dir Waves Ship Positions

Rhonda Lamulle

Owner: Florida Marine, LLC, Mandeville, LA. More information available from US FCC via Universal Licensing System and Coast Guard Vessel Documentation Center.

Last reported at 2017-Mar-27 12:33 UTC. Time now 2017-Mar-27 12:39 UTC.
Position N 30°29' W 086°29'.

Length 13 m; draft 3 m.

Type: Towing. MMSI: 367087104.

Date/timePositionNaut miles runAvg speedWind from/ knotsBaromVisibWave heightAir tempDewpointWater temp
2017-Mar-27 12:33N 30°29' W 086°29'0 0.0
2017-Mar-27 11:33N 30°29' W 086°29'0 0.0
2017-Mar-27 10:33N 30°29' W 086°29'0 0.0
2017-Mar-27 09:33N 30°29' W 086°29'1 0.8
2017-Mar-27 08:33N 30°29' W 086°29'5 4.7
2017-Mar-27 07:33N 30°25' W 086°31'6 5.5
2017-Mar-27 06:31N 30°24' W 086°38'8 5.8
2017-Mar-27 05:08N 30°24' W 086°47'3 6.0
2017-Mar-27 04:33N 30°24' W 086°51'  
Track history (hours):
 
Tides and Currents Weather Stations Pressure Air Temp Water Temp Dewpoint Dewpoint Depression Visibility Wind Speed Wind Dir Waves Ship Positions

Rhonda Lamulle

Owner: Florida Marine, LLC, Mandeville, LA. More information available from US FCC via Universal Licensing System and Coast Guard Vessel Documentation Center.

Last reported at 2017-Mar-27 12:33 UTC. Time now 2017-Mar-27 12:39 UTC.
Position N 30°29' W 086°29'.

Length 13 m; draft 3 m.

Type: Towing. MMSI: 367087104.

Date/timePositionNaut miles runAvg speedWind from/ knotsBaromVisibWave heightAir tempDewpointWater temp
2017-Mar-27 12:33N 30°29' W 086°29'0 0.0
2017-Mar-27 11:33N 30°29' W 086°29'0 0.0
2017-Mar-27 10:33N 30°29' W 086°29'0 0.0
2017-Mar-27 09:33N 30°29' W 086°29'1 0.8
2017-Mar-27 08:33N 30°29' W 086°29'5 4.7
2017-Mar-27 07:33N 30°25' W 086°31'6 5.5
2017-Mar-27 06:31N 30°24' W 086°38'8 5.8
2017-Mar-27 05:08N 30°24' W 086°47'3 6.0
2017-Mar-27 04:33N 30°24' W 086°51'  

Dump ship's entire track history